Time;durP1;ratioP1;P1;durP2;ratioP2;P2;SDS_P1;SDS_P2;PMS_P1;PMS_P2;Temp;Humidity;BMP_temperature;BMP_pressure;BME280_temperature;BME280_humidity;BME280_pressure;Samples;Min_cycle;Max_cycle;Signal;HPM_P1;HPM_P2
2023/02/14 00:00:29;;;;;;;11.98;6.07;;;27.70;83.10;;;;;;5084584;28;20308;-50
2023/02/14 00:02:55;;;;;;;11.63;5.65;;;27.60;83.30;;;;;;5083934;28;20024;-52
2023/02/14 00:05:37;;;;;;;12.75;6.13;;;27.60;83.40;;;;;;5084227;28;20036;-52
2023/02/14 00:08:04;;;;;;;9.73;5.80;;;27.60;83.40;;;;;;5083998;28;20036;-52
2023/02/14 00:10:31;;;;;;;9.95;6.68;;;27.60;83.10;;;;;;5083613;28;20029;-50
2023/02/14 00:12:57;;;;;;;8.90;6.60;;;27.60;83.10;;;;;;5083757;28;20167;-51
2023/02/14 00:15:24;;;;;;;10.68;6.72;;;27.60;83.00;;;;;;5083862;28;20026;-52
2023/02/14 00:17:58;;;;;;;8.88;5.88;;;27.60;82.80;;;;;;5084465;28;20104;-49
2023/02/14 00:20:26;;;;;;;7.85;5.63;;;27.50;82.90;;;;;;5082876;28;20042;-51
2023/02/14 00:22:53;;;;;;;9.57;5.63;;;27.60;82.80;;;;;;5084697;28;20017;-48
2023/02/14 00:25:20;;;;;;;7.90;7.10;;;27.50;82.60;;;;;;5086030;28;20036;-50
2023/02/14 00:27:46;;;;;;;6.95;6.18;;;27.50;82.70;;;;;;5086481;28;20025;-53
2023/02/14 00:30:13;;;;;;;7.20;5.63;;;27.50;82.50;;;;;;5085824;28;20028;-53
2023/02/14 00:32:41;;;;;;;7.57;5.78;;;27.50;82.40;;;;;;5086282;28;20024;-58
2023/02/14 00:35:08;;;;;;;8.60;5.68;;;27.50;82.40;;;;;;5086114;28;20208;-54
2023/02/14 00:37:37;;;;;;;7.85;5.63;;;27.50;82.30;;;;;;5087920;28;20235;-49
2023/02/14 00:40:06;;;;;;;9.93;5.63;;;27.50;82.20;;;;;;5087400;28;20028;-55
2023/02/14 00:42:32;;;;;;;10.38;5.50;;;27.50;82.00;;;;;;5087964;28;20013;-47
2023/02/14 00:44:59;;;;;;;10.40;5.53;;;27.50;82.20;;;;;;5087122;28;20039;-55
2023/02/14 00:47:26;;;;;;;5.40;4.60;;;27.50;82.10;;;;;;5087715;28;20200;-57
2023/02/14 00:49:52;;;;;;;10.23;5.30;;;27.50;82.10;;;;;;5087155;28;20098;-52
2023/02/14 00:52:19;;;;;;;7.78;5.32;;;27.50;82.20;;;;;;5087352;28;20096;-49
2023/02/14 00:54:56;;;;;;;;;;;;;;;;;;;;;
2023/02/14 00:57:22;;;;;;;8.55;5.18;;;27.40;82.10;;;;;;5082206;28;20059;-51
2023/02/14 00:59:49;;;;;;;8.10;5.57;;;27.40;82.10;;;;;;5085762;28;20060;-47
2023/02/14 01:02:19;;;;;;;12.85;9.75;;;27.40;82.20;;;;;;5087321;28;20305;-47
2023/02/14 01:04:46;;;;;;;25.13;21.13;;;27.40;82.30;;;;;;5087084;28;20037;-46
2023/02/14 01:07:12;;;;;;;34.30;23.85;;;27.40;82.20;;;;;;5087114;28;20192;-53
2023/02/14 01:09:39;;;;;;;24.60;19.42;;;27.40;81.90;;;;;;5086837;28;20020;-47
2023/02/14 01:12:05;;;;;;;23.25;17.13;;;27.40;81.90;;;;;;5087079;28;20060;-49
2023/02/14 01:14:32;;;;;;;20.48;15.63;;;27.30;81.90;;;;;;5087019;28;20043;-51
2023/02/14 01:16:59;;;;;;;18.33;14.35;;;27.30;81.90;;;;;;5068895;28;20040;-50
2023/02/14 01:19:25;;;;;;;19.38;11.77;;;27.40;81.80;;;;;;5086593;28;20016;-49
2023/02/14 01:21:52;;;;;;;15.25;10.57;;;27.40;81.70;;;;;;5086628;28;20024;-50
2023/02/14 01:24:20;;;;;;;12.70;9.48;;;27.40;81.70;;;;;;5086726;28;20059;-50
2023/02/14 01:26:47;;;;;;;15.05;9.18;;;27.30;81.70;;;;;;5086726;28;20024;-54
2023/02/14 01:29:13;;;;;;;11.63;9.07;;;27.30;81.90;;;;;;5086300;28;20028;-48
2023/02/14 01:31:41;;;;;;;16.30;8.38;;;27.30;82.00;;;;;;5086628;28;20020;-52
2023/02/14 01:34:08;;;;;;;12.55;8.07;;;27.30;82.00;;;;;;5086091;28;20319;-49
2023/02/14 01:36:39;;;;;;;12.90;7.65;;;27.30;82.30;;;;;;5086244;28;20044;-47
2023/02/14 01:39:10;;;;;;;8.80;7.00;;;27.30;82.10;;;;;;5086132;28;20088;-48
2023/02/14 01:41:38;;;;;;;10.35;6.25;;;27.30;82.30;;;;;;5086350;28;20036;-52
2023/02/14 01:44:26;;;;;;;9.27;6.55;;;27.30;82.40;;;;;;5086241;28;20036;-46
2023/02/14 01:46:54;;;;;;;9.73;6.20;;;27.30;82.10;;;;;;5087118;28;20027;-51
2023/02/14 01:49:37;;;;;;;8.23;6.03;;;27.30;81.90;;;;;;5085979;28;20020;-49
2023/02/14 01:52:33;;;;;;;8.23;5.60;;;27.30;81.90;;;;;;5086576;28;20037;-48
2023/02/14 01:55:07;;;;;;;7.03;5.38;;;27.30;82.00;;;;;;5086075;28;20257;-50
2023/02/14 01:57:41;;;;;;;7.57;5.00;;;27.30;81.80;;;;;;5086287;28;20304;-48
2023/02/14 02:03:04;;;;;;;8.57;5.65;;;27.30;81.80;;;;;;5065835;28;20051;-54
2023/02/14 02:05:31;;;;;;;9.68;5.80;;;27.30;81.40;;;;;;5047890;28;20021;-53
2023/02/14 02:07:59;;;;;;;9.07;5.13;;;27.30;81.30;;;;;;5065711;28;20082;-51
2023/02/14 02:10:26;;;;;;;8.13;5.47;;;27.30;81.00;;;;;;5083650;28;20068;-50
2023/02/14 02:12:55;;;;;;;11.82;5.43;;;27.30;81.10;;;;;;5079359;28;20100;-51
2023/02/14 02:15:32;;;;;;;13.43;5.10;;;27.30;81.30;;;;;;5085520;28;20091;-51
2023/02/14 02:18:16;;;;;;;10.88;5.28;;;27.30;81.20;;;;;;5085681;28;20095;-50
2023/02/14 02:21:05;;;;;;;11.07;5.10;;;27.30;81.10;;;;;;5085431;28;20042;-55
2023/02/14 02:24:12;;;;;;;14.35;5.28;;;27.40;81.10;;;;;;5085683;28;20028;-47
2023/02/14 02:27:18;;;;;;;7.20;4.93;;;27.30;80.90;;;;;;5075461;28;20082;-53
2023/02/14 02:30:21;;;;;;;11.88;5.20;;;27.30;81.00;;;;;;5076253;28;20024;-47
2023/02/14 02:32:59;;;;;;;8.38;5.13;;;27.30;80.80;;;;;;5070812;28;20016;-54
2023/02/14 02:35:51;;;;;;;8.93;4.60;;;27.30;80.80;;;;;;5076127;28;20032;-53
2023/02/14 02:38:51;;;;;;;9.63;5.00;;;27.30;80.90;;;;;;5057606;28;20103;-53
2023/02/14 02:41:23;;;;;;;8.73;5.20;;;27.30;80.80;;;;;;5085187;28;20212;-54
2023/02/14 02:44:02;;;;;;;7.60;4.95;;;27.30;80.70;;;;;;5084538;28;20112;-53
2023/02/14 02:47:15;;;;;;;6.32;5.43;;;27.30;80.80;;;;;;5084493;28;20067;-50
2023/02/14 02:53:22;;;;;;;7.38;4.88;;;27.30;80.60;;;;;;5084671;28;20109;-49
2023/02/14 02:59:19;;;;;;;8.13;4.55;;;27.30;80.50;;;;;;5084541;28;20139;-53
2023/02/14 03:01:52;;;;;;;6.90;4.65;;;27.30;80.40;;;;;;5084594;28;20205;-50
2023/02/14 03:07:33;;;;;;;7.47;4.22;;;27.30;80.30;;;;;;5084952;28;20020;-54
2023/02/14 03:09:58;;;;;;;6.05;4.40;;;27.30;80.30;;;;;;5077433;28;20036;-53
2023/02/14 03:12:24;;;;;;;;;;;27.30;80.30;;;;;;5065564;28;20119;-46
2023/02/14 03:15:16;;;;;;;6.18;4.65;;;27.20;80.30;;;;;;5063956;28;19904;-46
2023/02/14 03:17:53;;;;;;;4.43;3.93;;;27.20;80.40;;;;;;5064770;28;20017;-47
2023/02/14 03:20:44;;;;;;;7.78;5.00;;;27.20;80.30;;;;;;5064381;28;20037;-48
2023/02/14 03:23:31;;;;;;;7.35;4.60;;;27.20;80.20;;;;;;5064224;28;20225;-52
2023/02/14 03:26:21;;;;;;;6.70;5.07;;;27.20;80.10;;;;;;5064198;28;20295;-53
2023/02/14 03:29:02;;;;;;;6.63;4.30;;;27.20;80.20;;;;;;5064473;28;20084;-47
2023/02/14 03:31:35;;;;;;;7.15;4.50;;;27.20;80.00;;;;;;5064306;28;20060;-52
2023/02/14 03:34:27;;;;;;;8.30;4.70;;;27.20;79.90;;;;;;5064034;28;20064;-50
2023/02/14 03:37:16;;;;;;;6.78;4.60;;;27.20;79.80;;;;;;5064796;28;20029;-52
2023/02/14 03:40:08;;;;;;;5.20;4.70;;;27.20;79.90;;;;;;5063932;28;20092;-50
2023/02/14 03:43:16;;;;;;;6.35;4.70;;;27.20;79.90;;;;;;5064718;28;20212;-51
2023/02/14 03:45:51;;;;;;;5.63;4.60;;;27.20;79.80;;;;;;4983502;28;20057;-50
2023/02/14 03:48:20;;;;;;;5.10;4.60;;;27.20;79.80;;;;;;4983306;28;20041;-47
2023/02/14 03:50:55;;;;;;;4.88;4.40;;;27.10;79.80;;;;;;5028144;28;20233;-52
2023/02/14 03:53:25;;;;;;;6.53;4.60;;;27.10;79.90;;;;;;5074926;28;20104;-50
2023/02/14 03:56:21;;;;;;;7.80;4.97;;;27.10;79.90;;;;;;5063809;28;20021;-50
2023/02/14 03:58:54;;;;;;;5.50;4.72;;;27.10;80.00;;;;;;5063969;28;20096;-48
2023/02/14 04:01:30;;;;;;;6.07;4.45;;;27.10;80.10;;;;;;5063790;28;20135;-51
2023/02/14 04:03:58;;;;;;;5.15;4.60;;;27.10;80.10;;;;;;5063698;28;20071;-54
2023/02/14 04:06:27;;;;;;;6.43;4.47;;;27.10;80.00;;;;;;5046408;28;20028;-53
2023/02/14 04:08:57;;;;;;;5.22;4.35;;;27.10;79.90;;;;;;5064634;28;20096;-52
2023/02/14 04:11:24;;;;;;;5.55;4.32;;;27.10;79.80;;;;;;5045763;28;20051;-52
2023/02/14 04:13:50;;;;;;;5.90;4.68;;;27.10;79.70;;;;;;5063944;28;20059;-52
2023/02/14 04:16:17;;;;;;;6.18;4.20;;;27.10;79.80;;;;;;5063897;28;20045;-48
2023/02/14 04:21:28;;;;;;;4.53;4.13;;;27.10;79.70;;;;;;5063714;28;20040;-53
2023/02/14 04:23:55;;;;;;;6.90;4.43;;;27.10;79.60;;;;;;5063508;28;20080;-51
2023/02/14 04:26:21;;;;;;;4.93;4.40;;;27.10;79.60;;;;;;5063791;28;20033;-55
2023/02/14 04:28:48;;;;;;;5.18;4.30;;;27.10;79.60;;;;;;5063816;28;20013;-52
2023/02/14 04:31:16;;;;;;;7.28;4.07;;;27.10;79.50;;;;;;5064134;28;20047;-50
2023/02/14 04:33:44;;;;;;;5.18;3.95;;;27.10;79.50;;;;;;5063362;28;20035;-53
2023/02/14 04:36:11;;;;;;;7.85;4.18;;;27.10;79.50;;;;;;5063527;28;20097;-54
2023/02/14 04:38:38;;;;;;;6.53;4.00;;;27.10;79.50;;;;;;5063452;28;20037;-49
2023/02/14 04:41:04;;;;;;;6.10;4.18;;;27.10;79.50;;;;;;5063279;28;20120;-47
2023/02/14 04:43:31;;;;;;;4.78;3.97;;;27.10;79.60;;;;;;5063441;28;20067;-52
2023/02/14 04:45:58;;;;;;;5.40;3.97;;;27.10;79.60;;;;;;5063193;28;20021;-48
2023/02/14 04:48:24;;;;;;;6.60;4.00;;;27.10;79.40;;;;;;5063667;28;20066;-57
2023/02/14 04:50:53;;;;;;;7.20;4.10;;;27.10;79.40;;;;;;5063317;28;20041;-49
2023/02/14 04:53:21;;;;;;;5.65;4.50;;;27.10;79.30;;;;;;5063181;28;20013;-51
2023/02/14 04:55:50;;;;;;;4.55;3.92;;;27.10;79.30;;;;;;5063242;28;20028;-49
2023/02/14 04:58:17;;;;;;;6.28;4.28;;;27.10;79.20;;;;;;5063182;28;20021;-48
2023/02/14 05:00:44;;;;;;;6.57;4.60;;;27.10;79.20;;;;;;5063709;28;20031;-53
2023/02/14 05:03:11;;;;;;;9.38;4.40;;;27.10;79.20;;;;;;5063196;28;20037;-54
2023/02/14 05:05:37;;;;;;;6.05;4.43;;;27.10;79.10;;;;;;5063571;28;20028;-51
2023/02/14 05:08:04;;;;;;;5.25;3.92;;;27.10;79.10;;;;;;5063834;28;20021;-53
2023/02/14 05:10:30;;;;;;;5.68;4.38;;;27.10;79.10;;;;;;5066873;28;20037;-52
2023/02/14 05:12:57;;;;;;;5.72;4.22;;;27.10;79.10;;;;;;5066816;28;20214;-53
2023/02/14 05:15:23;;;;;;;5.05;4.22;;;27.10;79.20;;;;;;5066663;28;20276;-51
2023/02/14 05:17:50;;;;;;;7.03;5.22;;;27.10;79.30;;;;;;5067165;28;20079;-51
2023/02/14 05:20:17;;;;;;;6.95;5.00;;;27.10;79.50;;;;;;5066715;28;20033;-49
2023/02/14 05:22:43;;;;;;;8.43;5.18;;;27.10;79.50;;;;;;5067080;28;20268;-53
2023/02/14 05:25:10;;;;;;;9.30;5.68;;;27.10;79.60;;;;;;5066469;28;20185;-51
2023/02/14 05:27:36;;;;;;;7.32;5.60;;;27.10;79.70;;;;;;5066862;28;20043;-52
2023/02/14 05:30:03;;;;;;;8.73;5.57;;;27.00;79.60;;;;;;5066484;28;20063;-50
2023/02/14 05:32:30;;;;;;;7.30;5.50;;;27.00;79.60;;;;;;5066628;28;20033;-48
2023/02/14 05:34:56;;;;;;;10.27;6.00;;;27.00;79.70;;;;;;5066283;28;20213;-52
2023/02/14 05:37:23;;;;;;;7.65;5.50;;;27.00;79.80;;;;;;5066705;28;20021;-50
2023/02/14 05:39:49;;;;;;;7.38;5.80;;;27.00;79.80;;;;;;5066024;28;20070;-50
2023/02/14 05:42:16;;;;;;;9.25;5.78;;;27.00;79.80;;;;;;5066518;28;20308;-59
2023/02/14 05:44:42;;;;;;;8.20;5.78;;;27.00;79.90;;;;;;5066126;28;20113;-48
2023/02/14 05:47:09;;;;;;;7.55;5.53;;;27.00;80.00;;;;;;5066214;28;20092;-50
2023/02/14 05:49:35;;;;;;;7.55;5.30;;;27.00;80.00;;;;;;5066138;28;20017;-56
2023/02/14 05:52:02;;;;;;;7.95;5.43;;;27.00;80.00;;;;;;5066370;28;20064;-49
2023/02/14 05:54:30;;;;;;;6.55;4.85;;;27.00;80.00;;;;;;5065848;28;20213;-49
2023/02/14 05:56:57;;;;;;;8.80;4.97;;;27.00;80.00;;;;;;5066055;28;20321;-54
2023/02/14 05:59:23;;;;;;;7.93;5.22;;;27.00;80.00;;;;;;5065792;28;20033;-49
2023/02/14 06:01:50;;;;;;;6.43;4.75;;;27.00;79.90;;;;;;5065853;28;20048;-55
2023/02/14 06:04:16;;;;;;;6.53;4.70;;;27.00;79.80;;;;;;5065837;28;20029;-49
2023/02/14 06:06:43;;;;;;;5.93;4.63;;;27.00;79.90;;;;;;5065980;28;20044;-51
2023/02/14 06:09:09;;;;;;;7.63;4.78;;;26.90;79.60;;;;;;5065538;28;20197;-48
2023/02/14 06:11:36;;;;;;;9.70;4.13;;;26.90;79.70;;;;;;5065835;28;20049;-49
2023/02/14 06:14:02;;;;;;;6.82;4.53;;;27.00;79.70;;;;;;5065787;28;20213;-49
2023/02/14 06:16:29;;;;;;;5.70;4.35;;;27.00;79.50;;;;;;5065661;28;20096;-51
2023/02/14 06:18:55;;;;;;;7.75;4.25;;;27.00;79.40;;;;;;5065540;28;20021;-54
2023/02/14 06:21:22;;;;;;;8.20;4.63;;;27.00;79.50;;;;;;5065651;28;20029;-48
2023/02/14 06:23:49;;;;;;;4.57;4.18;;;27.00;79.50;;;;;;5065199;28;20060;-50
2023/02/14 06:26:16;;;;;;;4.70;4.20;;;27.00;79.40;;;;;;5065452;28;20036;-53
2023/02/14 06:28:42;;;;;;;6.47;4.18;;;27.00;79.40;;;;;;5065371;28;20041;-49
2023/02/14 06:31:16;;;;;;;5.80;4.22;;;27.00;79.50;;;;;;5065259;28;20094;-49
2023/02/14 06:33:42;;;;;;;6.70;4.00;;;27.00;79.50;;;;;;5065159;28;20033;-52
2023/02/14 06:36:09;;;;;;;6.95;3.95;;;26.90;79.60;;;;;;5065382;28;20213;-49
2023/02/14 06:38:36;;;;;;;4.50;4.03;;;26.90;79.70;;;;;;5065056;28;20039;-49
2023/02/14 06:41:04;;;;;;;5.95;4.40;;;27.00;79.80;;;;;;5064980;28;20321;-54
2023/02/14 06:43:31;;;;;;;4.63;4.10;;;26.90;79.70;;;;;;5064982;28;20028;-47
2023/02/14 06:45:58;;;;;;;6.38;4.25;;;26.90;79.80;;;;;;5064926;28;20205;-50
2023/02/14 06:48:24;;;;;;;5.80;4.28;;;26.90;79.90;;;;;;5065089;28;20096;-48
2023/02/14 06:50:51;;;;;;;6.85;4.28;;;26.90;80.10;;;;;;5064962;28;20087;-46
2023/02/14 06:53:19;;;;;;;6.78;4.53;;;26.90;80.20;;;;;;5064786;28;20240;-51
2023/02/14 06:55:45;;;;;;;7.28;4.70;;;26.90;80.20;;;;;;5064744;28;20091;-50
2023/02/14 06:58:12;;;;;;;8.27;4.53;;;26.90;80.30;;;;;;5070934;28;20032;-51
2023/02/14 07:00:39;;;;;;;5.85;4.32;;;26.90;80.20;;;;;;5084465;28;20052;-51
2023/02/14 07:03:06;;;;;;;6.68;4.55;;;26.90;80.30;;;;;;5084873;28;20039;-50
2023/02/14 07:05:34;;;;;;;6.78;4.88;;;26.90;80.20;;;;;;5084511;28;20213;-48
2023/02/14 07:08:00;;;;;;;7.90;4.65;;;26.90;80.20;;;;;;5084378;28;20043;-54
2023/02/14 07:10:27;;;;;;;6.68;4.45;;;26.90;80.40;;;;;;5084343;28;20157;-52
2023/02/14 07:12:55;;;;;;;5.80;4.18;;;26.90;80.30;;;;;;5085044;28;20307;-49
2023/02/14 07:15:22;;;;;;;6.18;4.40;;;26.90;80.30;;;;;;5084319;28;20029;-47
2023/02/14 07:17:48;;;;;;;5.25;4.43;;;26.90;80.20;;;;;;5084952;28;20075;-49
2023/02/14 07:20:15;;;;;;;4.88;4.30;;;26.90;80.10;;;;;;5084350;28;20020;-51
2023/02/14 07:22:41;;;;;;;5.53;4.22;;;26.90;80.20;;;;;;5084722;28;20028;-47
2023/02/14 07:25:08;;;;;;;7.40;4.43;;;26.90;80.20;;;;;;5084176;28;20020;-52
2023/02/14 07:27:35;;;;;;;6.28;4.22;;;26.90;80.20;;;;;;5084744;28;20194;-50
2023/02/14 07:30:03;;;;;;;7.10;4.70;;;26.90;80.30;;;;;;5084261;28;20074;-52
2023/02/14 07:32:30;;;;;;;6.35;4.32;;;26.90;80.40;;;;;;5082220;28;20024;-54
2023/02/14 07:34:56;;;;;;;7.97;4.75;;;26.90;80.30;;;;;;5071363;28;20067;-55
2023/02/14 07:37:23;;;;;;;5.60;4.40;;;26.90;80.50;;;;;;5084554;28;20016;-50
2023/02/14 07:39:49;;;;;;;4.93;4.20;;;26.90;80.40;;;;;;5083953;28;20035;-53
2023/02/14 07:42:16;;;;;;;7.88;4.55;;;26.90;80.60;;;;;;5084473;28;20091;-50
2023/02/14 07:44:45;;;;;;;6.75;3.95;;;26.90;80.60;;;;;;5078659;28;20084;-49
2023/02/14 07:47:11;;;;;;;5.05;4.30;;;26.90;80.70;;;;;;5072887;28;20074;-49
2023/02/14 07:49:38;;;;;;;5.28;4.25;;;26.90;80.70;;;;;;5063874;28;20028;-49
2023/02/14 07:52:05;;;;;;;6.22;4.18;;;26.90;80.90;;;;;;5064304;28;20045;-49
2023/02/14 07:54:31;;;;;;;5.78;4.25;;;26.90;81.00;;;;;;5063636;28;20033;-54
2023/02/14 07:56:58;;;;;;;6.63;4.20;;;26.90;81.20;;;;;;5064019;28;20056;-52
2023/02/14 07:59:25;;;;;;;5.47;4.18;;;26.90;81.70;;;;;;5063975;28;20358;-50
2023/02/14 08:01:51;;;;;;;4.85;4.35;;;26.90;81.10;;;;;;5063788;28;20028;-56
2023/02/14 08:04:18;;;;;;;8.75;4.03;;;26.90;81.10;;;;;;5063969;28;20025;-51
2023/02/14 08:06:44;;;;;;;4.90;4.10;;;26.90;81.10;;;;;;5064052;28;20024;-48
2023/02/14 08:09:23;;;;;;;8.23;4.38;;;26.90;81.20;;;;;;5063448;28;20084;-48
2023/02/14 08:14:39;;;;;;;6.07;3.92;;;26.90;81.20;;;;;;5070214;28;20232;-51
2023/02/14 08:17:07;;;;;;;5.35;3.80;;;26.80;81.20;;;;;;5064166;28;20040;-50
2023/02/14 08:19:33;;;;;;;5.38;3.97;;;26.90;81.20;;;;;;5063601;28;20221;-52
2023/02/14 08:22:00;;;;;;;6.10;4.15;;;26.90;81.10;;;;;;5063835;28;20028;-50
2023/02/14 08:24:27;;;;;;;6.75;4.10;;;26.80;81.00;;;;;;5063455;28;20029;-48
2023/02/14 08:26:53;;;;;;;5.10;4.00;;;26.80;81.00;;;;;;5063361;28;20088;-49
2023/02/14 08:29:21;;;;;;;5.57;3.88;;;26.80;81.10;;;;;;5063439;28;20029;-49
2023/02/14 08:31:47;;;;;;;6.90;4.00;;;26.80;81.10;;;;;;5063733;28;20033;-54
2023/02/14 08:34:15;;;;;;;6.05;4.13;;;26.80;81.10;;;;;;5063127;28;20075;-49
2023/02/14 08:36:41;;;;;;;5.95;4.90;;;26.80;81.30;;;;;;5063543;28;20029;-49
2023/02/14 08:39:09;;;;;;;6.60;4.00;;;26.80;81.50;;;;;;5063634;28;20025;-49
2023/02/14 08:41:36;;;;;;;5.65;4.25;;;26.80;81.50;;;;;;5063538;28;20036;-57
2023/02/14 08:44:02;;;;;;;7.03;4.13;;;26.80;81.50;;;;;;5065787;28;20080;-57
2023/02/14 08:46:29;;;;;;;5.05;4.10;;;26.80;81.60;;;;;;5067392;28;20051;-52
2023/02/14 08:48:56;;;;;;;5.47;4.40;;;26.80;81.60;;;;;;5067190;28;20056;-59
2023/02/14 08:51:22;;;;;;;5.75;4.25;;;26.80;81.50;;;;;;5067146;28;20035;-55
2023/02/14 08:53:50;;;;;;;5.00;4.50;;;26.80;81.50;;;;;;5067224;28;20036;-47
2023/02/14 08:56:19;;;;;;;6.22;4.63;;;26.80;81.50;;;;;;5067165;28;20029;-47
2023/02/14 08:58:46;;;;;;;6.05;4.70;;;26.80;81.40;;;;;;5066851;28;20071;-50
2023/02/14 09:01:17;;;;;;;4.63;4.10;;;26.90;82.00;;;;;;5066811;28;20075;-47
2023/02/14 09:03:44;;;;;;;7.03;4.13;;;26.80;81.40;;;;;;5066883;28;20021;-49
2023/02/14 09:06:13;;;;;;;6.15;4.38;;;26.80;81.50;;;;;;5066905;28;20119;-50
2023/02/14 09:08:40;;;;;;;7.30;4.13;;;26.80;81.50;;;;;;5066744;28;20024;-54
2023/02/14 09:11:11;;;;;;;5.65;4.18;;;26.80;81.50;;;;;;5066598;28;20053;-47
2023/02/14 09:13:37;;;;;;;7.20;4.47;;;26.80;81.60;;;;;;5066727;28;20056;-58
2023/02/14 09:16:09;;;;;;;6.70;4.47;;;26.80;81.60;;;;;;5062132;28;20037;-50
2023/02/14 09:18:36;;;;;;;9.73;4.45;;;26.80;81.70;;;;;;5063996;28;20079;-51
2023/02/14 09:21:10;;;;;;;6.50;4.35;;;26.80;81.80;;;;;;5066740;28;20033;-49
2023/02/14 09:23:38;;;;;;;4.63;4.10;;;26.80;81.80;;;;;;5066502;28;20123;-49
2023/02/14 09:26:07;;;;;;;6.45;3.92;;;26.80;81.90;;;;;;5069536;28;20033;-55
2023/02/14 09:28:34;;;;;;;5.15;4.55;;;26.80;82.00;;;;;;5086574;28;20083;-55
2023/02/14 09:31:15;;;;;;;5.45;4.38;;;26.80;82.10;;;;;;5082244;28;20048;-50
2023/02/14 09:33:43;;;;;;;9.03;4.40;;;26.80;82.30;;;;;;5084714;28;20073;-47
2023/02/14 09:38:55;;;;;;;6.30;4.57;;;26.80;82.60;;;;;;5086344;28;20039;-50
2023/02/14 09:41:24;;;;;;;8.45;4.35;;;26.70;82.70;;;;;;5086378;28;20036;-53
2023/02/14 09:44:15;;;;;;;5.13;4.25;;;26.70;82.80;;;;;;5086177;28;20083;-53
2023/02/14 09:46:48;;;;;;;7.18;4.65;;;26.70;82.80;;;;;;5068382;28;20036;-54
2023/02/14 09:49:17;;;;;;;8.23;4.43;;;26.70;82.90;;;;;;5085999;28;20031;-49
2023/02/14 09:51:51;;;;;;;5.85;5.18;;;26.70;82.90;;;;;;5086299;28;20082;-60
2023/02/14 09:54:27;;;;;;;6.47;4.60;;;26.70;82.90;;;;;;5085643;28;20028;-54
2023/02/14 09:57:07;;;;;;;6.32;4.72;;;26.80;83.00;;;;;;5086229;28;20099;-53
2023/02/14 09:59:34;;;;;;;6.70;4.53;;;26.70;83.00;;;;;;5085828;28;20034;-50
2023/02/14 10:02:31;;;;;;;7.60;4.90;;;26.70;83.00;;;;;;5085880;28;20082;-49
2023/02/14 10:05:00;;;;;;;7.13;4.70;;;26.70;83.20;;;;;;5085605;28;20039;-50
2023/02/14 10:07:53;;;;;;;6.47;4.75;;;26.70;83.20;;;;;;5086163;28;20028;-53
2023/02/14 10:10:29;;;;;;;6.40;4.47;;;26.70;83.00;;;;;;5045038;28;20072;-54
2023/02/14 10:13:17;;;;;;;6.00;4.70;;;26.70;83.60;;;;;;5085501;28;20032;-53
2023/02/14 10:16:09;;;;;;;7.65;5.07;;;26.70;83.10;;;;;;5085526;28;20026;-54
2023/02/14 10:18:51;;;;;;;6.40;4.60;;;26.70;83.20;;;;;;5085352;28;20028;-50
2023/02/14 10:21:40;;;;;;;6.35;4.65;;;26.70;83.30;;;;;;5085516;28;20066;-54
2023/02/14 10:24:30;;;;;;;5.75;4.68;;;26.70;83.80;;;;;;5085404;28;20039;-54
2023/02/14 10:27:23;;;;;;;6.75;4.88;;;26.70;83.20;;;;;;5085574;28;20028;-49
2023/02/14 10:29:50;;;;;;;11.45;5.35;;;26.70;83.10;;;;;;5085023;28;20059;-53
2023/02/14 10:32:31;;;;;;;7.20;4.45;;;26.70;82.80;;;;;;5085371;28;20029;-54
2023/02/14 10:35:02;;;;;;;5.32;4.82;;;26.80;82.90;;;;;;5085138;28;20029;-56
2023/02/14 10:37:54;;;;;;;7.25;4.95;;;26.70;82.60;;;;;;5085418;28;20327;-57
2023/02/14 10:40:46;;;;;;;6.15;4.95;;;26.70;82.30;;;;;;5084727;28;20347;-50
2023/02/14 10:43:36;;;;;;;8.07;4.93;;;26.80;82.30;;;;;;5085218;28;20036;-48
2023/02/14 10:46:12;;;;;;;6.57;5.18;;;26.70;82.30;;;;;;5084874;28;20204;-47
2023/02/14 10:48:48;;;;;;;7.15;4.72;;;26.80;82.40;;;;;;5084955;28;20027;-48
2023/02/14 10:51:49;;;;;;;8.55;4.93;;;26.70;82.40;;;;;;5084974;28;20228;-52
2023/02/14 10:54:24;;;;;;;5.75;5.03;;;26.70;82.30;;;;;;5084812;28;20035;-55
2023/02/14 10:57:20;;;;;;;9.35;5.20;;;26.70;82.50;;;;;;5084757;28;20039;-53
2023/02/14 10:59:55;;;;;;;7.45;5.20;;;26.70;82.70;;;;;;5067253;28;20039;-55
2023/02/14 11:02:31;;;;;;;5.50;4.78;;;26.70;82.70;;;;;;5084875;28;20047;-49
2023/02/14 11:04:59;;;;;;;7.97;5.00;;;26.70;82.80;;;;;;5084278;28;20027;-48
2023/02/14 11:07:26;;;;;;;8.88;5.13;;;26.70;83.00;;;;;;5082358;28;20084;-54
2023/02/14 11:09:53;;;;;;;7.60;5.07;;;26.70;83.20;;;;;;5075103;28;20023;-47
2023/02/14 11:12:36;;;;;;;8.80;5.72;;;26.70;83.30;;;;;;5074660;28;20037;-50
2023/02/14 11:15:14;;;;;;;11.90;5.53;;;26.70;83.50;;;;;;5075901;28;20037;-53
2023/02/14 11:17:42;;;;;;;10.63;5.72;;;26.70;83.80;;;;;;5073867;28;20048;-56
2023/02/14 11:20:30;;;;;;;12.63;5.75;;;26.70;84.10;;;;;;5074659;28;20093;-51
2023/02/14 11:22:56;;;;;;;14.93;7.82;;;26.70;84.50;;;;;;5075300;28;20087;-54
2023/02/14 11:25:27;;;;;;;16.42;8.85;;;26.50;85.30;;;;;;5078090;28;20085;-46
2023/02/14 11:28:04;;;;;;;17.92;9.20;;;26.30;86.10;;;;;;5084871;28;20017;-54
2023/02/14 11:30:33;;;;;;;16.17;8.85;;;26.30;86.30;;;;;;5084140;28;20042;-48
2023/02/14 11:33:01;;;;;;;14.05;9.40;;;26.30;86.00;;;;;;5084334;28;20025;-50
2023/02/14 11:35:33;;;;;;;16.30;9.85;;;26.40;85.90;;;;;;5083291;28;20032;-51
2023/02/14 11:38:06;;;;;;;14.70;9.30;;;26.40;85.60;;;;;;5084113;28;20028;-47
2023/02/14 11:40:37;;;;;;;13.95;8.68;;;26.50;85.30;;;;;;5083526;28;20096;-46
2023/02/14 11:43:10;;;;;;;12.52;7.85;;;26.50;85.30;;;;;;5076624;28;20300;-55
2023/02/14 11:45:39;;;;;;;11.63;7.65;;;26.50;85.10;;;;;;5084100;28;20050;-54
2023/02/14 11:48:26;;;;;;;10.85;7.30;;;26.50;85.10;;;;;;5084425;28;20029;-52
2023/02/14 11:51:14;;;;;;;9.13;7.03;;;26.50;85.10;;;;;;5083951;28;20200;-46
2023/02/14 11:53:48;;;;;;;15.18;6.95;;;26.60;85.20;;;;;;5083944;28;20039;-47
2023/02/14 11:56:16;;;;;;;11.65;6.63;;;26.60;85.20;;;;;;5083725;28;20044;-50
2023/02/14 11:59:03;;;;;;;11.68;6.13;;;26.60;84.90;;;;;;5083404;28;20057;-50
2023/02/14 12:01:32;;;;;;;11.40;6.32;;;26.60;84.70;;;;;;5083866;28;20058;-48
2023/02/14 12:04:06;;;;;;;12.98;6.20;;;26.60;84.80;;;;;;5083606;28;20207;-53
2023/02/14 12:06:35;;;;;;;9.32;5.78;;;26.60;84.80;;;;;;5084039;28;20075;-48
2023/02/14 12:09:39;;;;;;;10.88;6.03;;;26.60;84.80;;;;;;5083693;28;20020;-49
2023/02/14 12:12:17;;;;;;;13.35;5.90;;;26.70;84.90;;;;;;5083810;28;20060;-56
2023/02/14 12:14:44;;;;;;;12.95;6.10;;;26.70;85.00;;;;;;5083733;28;20012;-46
2023/02/14 12:17:43;;;;;;;11.73;6.00;;;26.70;84.80;;;;;;5085049;28;20100;-52
2023/02/14 12:20:30;;;;;;;13.32;6.22;;;26.70;84.80;;;;;;5083986;28;20336;-49
2023/02/14 12:23:04;;;;;;;10.70;5.65;;;26.80;85.30;;;;;;5087418;28;20111;-47
2023/02/14 12:25:46;;;;;;;10.48;5.75;;;26.80;84.70;;;;;;5087354;28;20040;-46
2023/02/14 12:28:18;;;;;;;11.32;5.80;;;26.80;84.60;;;;;;5067125;28;20025;-48
2023/02/14 12:30:48;;;;;;;13.45;5.75;;;26.80;84.70;;;;;;5067429;28;20060;-50
2023/02/14 12:33:20;;;;;;;9.73;5.70;;;26.90;84.80;;;;;;5067311;28;20047;-48
2023/02/14 12:36:19;;;;;;;8.50;5.63;;;26.90;84.90;;;;;;5067674;28;20025;-48
2023/02/14 12:38:45;;;;;;;11.57;6.10;;;26.90;84.80;;;;;;5067414;28;20312;-49
2023/02/14 12:41:18;;;;;;;9.10;5.72;;;26.90;84.80;;;;;;5067125;28;20031;-51
2023/02/14 12:43:49;;;;;;;12.30;5.43;;;26.90;84.80;;;;;;5067319;28;20024;-51
2023/02/14 12:46:36;;;;;;;10.93;5.73;;;26.90;84.80;;;;;;5067185;28;20052;-48
2023/02/14 12:49:08;;;;;;;7.55;5.55;;;27.00;84.80;;;;;;5067011;28;20053;-51
2023/02/14 12:51:35;;;;;;;11.85;5.75;;;27.00;84.90;;;;;;5067389;28;20021;-49
2023/02/14 12:54:28;;;;;;;9.30;5.53;;;27.00;84.90;;;;;;5079994;28;20036;-48
2023/02/14 12:57:10;;;;;;;9.57;5.22;;;27.10;84.90;;;;;;5087407;28;20036;-48
2023/02/14 13:00:02;;;;;;;11.93;5.40;;;27.10;84.90;;;;;;5087029;28;20087;-48
2023/02/14 13:02:46;;;;;;;9.95;5.03;;;27.20;84.80;;;;;;5087263;28;20070;-53
2023/02/14 13:05:39;;;;;;;6.75;4.90;;;27.20;84.50;;;;;;5087198;28;20028;-52
2023/02/14 13:08:12;;;;;;;10.15;5.40;;;27.20;84.40;;;;;;5086768;28;20028;-54
2023/02/14 13:10:51;;;;;;;7.20;4.75;;;27.30;84.30;;;;;;5086758;28;20068;-56
2023/02/14 13:13:36;;;;;;;12.27;5.00;;;27.40;84.10;;;;;;5086845;28;20028;-54
2023/02/14 13:16:24;;;;;;;9.32;5.00;;;27.40;84.10;;;;;;5086949;28;20038;-51
2023/02/14 13:19:18;;;;;;;10.57;5.03;;;27.40;83.90;;;;;;5086742;28;20028;-47
2023/02/14 13:21:46;;;;;;;8.52;4.80;;;27.50;83.70;;;;;;5086758;28;20059;-51
2023/02/14 13:24:25;;;;;;;6.70;4.50;;;27.50;83.60;;;;;;5086793;28;20024;-53
2023/02/14 13:26:55;;;;;;;9.07;5.25;;;27.60;83.60;;;;;;5086461;28;20269;-53
2023/02/14 13:29:25;;;;;;;10.00;4.60;;;27.60;83.40;;;;;;5085717;28;20023;-46
2023/02/14 13:31:57;;;;;;;9.30;4.53;;;27.70;83.40;;;;;;5086732;28;20040;-48
2023/02/14 13:34:32;;;;;;;9.25;4.60;;;27.70;83.30;;;;;;5086357;28;20051;-51